METAR Data
IDs: Format: Raw Decoded Include TAF

Data at: 0014 UTC 26 Jun 2019

METAR for:EDDW (Bremen Arpt, --, DL)
Text:EDDW 252350Z 13002KT CAVOK 24/18 Q1018
Temperature: 24.0°C ( 75°F)
Dewpoint: 18.0°C ( 64°F) [RH = 69%]
Pressure (altimeter):30.06 inches Hg (1018.0 mb)
Winds:from the SE (130 degrees) at 2 MPH (2 knots; 1.0 m/s)
Visibility:6 or more sm (10+ km)
Ceiling:ceiling and visibility are OK
Clouds:unknown